This is the latest recevied weather packets stored in our database for station/object NG7M. If no packets are shown the sender has not sent any weather packets the latest 10 day(s).
| Time | Temp. | Humidity | Pressure | Rain* | Wind** | Luminosity | Snow |
|---|---|---|---|---|---|---|---|
| 1777427404 | 14.44° C | 22% | 1018.9 hPa | 0 mm | - | - | - |
| 1777423804 | 13.89° C | 27% | 1019.2 hPa | 0 mm | - | - | - |
| 1777419904 | 13.89° C | 28% | 1019.3 hPa | 0 mm | - | - | - |
| 1777419004 | 13.89° C | 29% | 1019.4 hPa | 0 mm | - | - | - |
| 1777418704 | 13.89° C | 30% | 1019.4 hPa | 0 mm | - | - | - |
| 1777415703 | 14.44° C | 27% | 1019.8 hPa | 0 mm | - | - | - |
| 1777412703 | 13.89° C | 28% | 1019.7 hPa | 0 mm | - | - | - |
| 1777410903 | 13.33° C | 27% | 1020 hPa | 0 mm | - | - | - |
| 1777410004 | 13.33° C | 28% | 1020 hPa | 0 mm | - | - | - |
| 1777408203 | 13.33° C | 30% | 1020 hPa | 0 mm | - | - | - |
| 1777407303 | 13.33° C | 32% | 1020 hPa | 0 mm | - | - | - |
| 1777401604 | 12.22° C | 41% | 1020.4 hPa | 0 mm | - | - | - |
| 1777400704 | 12.22° C | 43% | 1020.3 hPa | 0 mm | - | - | - |
| 1777399804 | 12.22° C | 45% | 1020.3 hPa | 0 mm | - | - | - |
| 1777397704 | 11.11° C | 45% | 1020.2 hPa | 0 mm | - | - | - |
| 1777396503 | 11.67° C | 48% | 1020.2 hPa | 0 mm | - | - | - |
| 1777395903 | 11.11° C | 50% | 1020.2 hPa | 0 mm | - | - | - |
| 1777394404 | 10.56° C | 50% | 1020.2 hPa | 0 mm | - | - | - |
| 1777392903 | 9.44° C | 60% | 1020.5 hPa | 0 mm | - | - | - |
| 1777390805 | 7.22° C | 71% | 1020.3 hPa | 0 mm | - | - | - |
| 1777389904 | 6.67° C | 75% | 1020.3 hPa | 0 mm | - | - | - |
| 1777385104 | 4.44° C | 81% | 1019.3 hPa | 0 mm | - | - | - |
| 1777383303 | 3.89° C | 83% | 1018.9 hPa | 0 mm | - | - | - |
| 1777382704 | 3.33° C | 83% | 1018.5 hPa | 0 mm | - | - | - |
| 1777380003 | 2.78° C | 84% | 1017.9 hPa | 0 mm | - | - | - |
* Rain latest hour (hover to see other rain measurements)
** Current wind speed in m/s (hover to see current wind gust speed)